Time;durP1;ratioP1;P1;durP2;ratioP2;P2;SDS_P1;SDS_P2;PMS_P1;PMS_P2;Temp;Humidity;BMP_temperature;BMP_pressure;BME280_temperature;BME280_humidity;BME280_pressure;Samples;Min_cycle;Max_cycle;Signal;HPM_P1;HPM_P2
2021/12/07 00:00:19;;;;;;;1.42;0.98;;;;;;;14.49;36.67;96134.59;5031821;28;20033;-25
2021/12/07 00:02:45;;;;;;;1.92;0.90;;;;;;;14.43;36.41;96139.16;5031817;28;20021;-25
2021/12/07 00:05:11;;;;;;;2.05;1.08;;;;;;;14.42;36.47;96126.75;5031246;28;20517;-25
2021/12/07 00:07:39;;;;;;;2.33;1.00;;;;;;;14.43;36.12;96122.03;5031667;28;20029;-25
2021/12/07 00:10:05;;;;;;;1.30;0.98;;;;;;;14.43;36.18;96133.72;5031591;28;20025;-25
2021/12/07 00:12:35;;;;;;;1.30;0.90;;;;;;;14.38;36.33;96129.59;5031570;28;20111;-25
2021/12/07 00:15:03;;;;;;;0.90;0.70;;;;;;;14.46;36.30;96138.25;5030427;28;20490;-25
2021/12/07 00:17:32;;;;;;;2.80;1.10;;;;;;;14.39;36.32;96146.72;5031143;28;20037;-25
2021/12/07 00:19:58;;;;;;;1.40;1.00;;;;;;;14.31;36.10;96142.81;5031520;28;20472;-25
2021/12/07 00:22:24;;;;;;;2.35;1.02;;;;;;;14.33;36.16;96148.56;5030213;28;20041;-25
2021/12/07 00:24:50;;;;;;;1.95;0.80;;;;;;;14.28;35.87;96158.09;5031412;28;20025;-25
2021/12/07 00:27:16;;;;;;;1.58;1.08;;;;;;;14.37;36.24;96165.50;5031564;28;20018;-25
2021/12/07 00:29:41;;;;;;;1.33;0.80;;;;;;;14.37;36.16;96162.78;5029351;28;20033;-25
2021/12/07 00:32:25;;;;;;;1.85;0.98;;;;;;;14.28;36.06;96165.53;5031526;28;20109;-25
2021/12/07 00:37:22;;;;;;;1.20;0.88;;;;;;;14.35;35.89;96178.84;5031475;28;19913;-25
2021/12/07 00:39:48;;;;;;;1.10;0.80;;;;;;;14.29;35.95;96164.31;5031249;28;20025;-25
2021/12/07 00:42:13;;;;;;;1.20;0.70;;;;;;;14.28;35.92;96179.94;5031098;28;20495;-25
2021/12/07 00:44:39;;;;;;;2.35;0.90;;;;;;;14.25;36.04;96182.81;5031253;28;20033;-25
2021/12/07 00:47:05;;;;;;;2.30;1.00;;;;;;;14.29;36.11;96175.22;5031378;28;20030;-25
2021/12/07 00:49:30;;;;;;;1.75;0.80;;;;;;;14.13;36.03;96172.81;5031316;28;20025;-25
2021/12/07 00:51:55;;;;;;;1.17;0.70;;;;;;;14.25;35.90;96185.53;5031197;28;20472;-25
2021/12/07 00:54:21;;;;;;;2.22;0.73;;;;;;;14.21;35.76;96180.25;5033510;28;20026;-25
2021/12/07 00:56:47;;;;;;;1.83;0.73;;;;;;;14.15;35.97;96179.34;5035175;28;20175;-24
2021/12/07 00:59:13;;;;;;;0.93;0.77;;;;;;;14.26;35.50;96182.34;5035182;28;20112;-25
2021/12/07 01:01:38;;;;;;;0.80;0.63;;;;;;;14.29;36.23;96191.59;5021199;28;20029;-25
2021/12/07 01:04:04;;;;;;;2.58;1.27;;;;;;;14.32;35.93;96190.69;5017374;28;20024;-25
2021/12/07 01:06:34;;;;;;;1.35;0.70;;;;;;;14.34;35.67;96183.53;5017289;28;20041;-25
2021/12/07 01:09:29;;;;;;;1.60;0.82;;;;;;;14.28;35.42;96190.84;5016563;28;20034;-25
2021/12/07 01:26:03;;;;;;;1.55;0.80;;;;;;;14.21;35.78;96174.03;5017037;28;20080;-25
2021/12/07 01:28:34;;;;;;;2.67;0.70;;;;;;;14.11;35.81;96164.31;5016785;28;20022;-25
2021/12/07 01:36:41;;;;;;;2.90;0.70;;;;;;;14.22;35.79;96180.97;5016980;28;20029;-25
2021/12/07 02:00:15;;;;;;;0.88;0.70;;;;;;;14.15;35.31;96162.22;5015535;28;20091;-25
2021/12/07 02:02:42;;;;;;;2.78;0.80;;;;;;;14.14;34.88;96164.19;5015132;28;20101;-25
2021/12/07 02:05:08;;;;;;;0.65;0.50;;;;;;;14.14;35.51;96157.97;5014640;28;20029;-25
2021/12/07 02:07:34;;;;;;;0.57;0.47;;;;;;;14.19;34.99;96160.84;5015272;28;20026;-25
2021/12/07 02:10:06;;;;;;;0.95;0.63;;;;;;;14.12;35.00;96150.25;5015050;28;20387;-25
2021/12/07 02:12:41;;;;;;;1.33;0.50;;;;;;;14.12;35.41;96152.97;5014917;28;20068;-25
2021/12/07 02:15:13;;;;;;;1.30;0.75;;;;;;;14.15;35.49;96148.56;5014988;28;20077;-25
2021/12/07 02:17:39;;;;;;;1.52;0.45;;;;;;;14.20;34.99;96146.00;5014827;28;20018;-25
2021/12/07 02:20:07;;;;;;;1.05;0.45;;;;;;;14.23;35.32;96139.63;5014577;28;20064;-25
2021/12/07 02:22:32;;;;;;;1.58;0.50;;;;;;;14.19;34.46;96139.03;5014768;28;20472;-25
2021/12/07 02:24:58;;;;;;;1.45;0.50;;;;;;;14.21;34.87;96141.31;5014721;28;20034;-25
2021/12/07 02:27:23;;;;;;;0.93;0.57;;;;;;;14.23;34.87;96131.44;5014670;28;20072;-25
2021/12/07 02:29:49;;;;;;;1.30;0.70;;;;;;;14.19;34.51;96141.00;5014719;28;20021;-25
2021/12/07 02:32:15;;;;;;;1.08;0.60;;;;;;;14.19;34.80;96138.28;5014787;28;20049;-25
2021/12/07 02:34:53;;;;;;;1.38;0.52;;;;;;;14.16;35.18;96122.81;5014587;28;20079;-25
2021/12/07 02:37:29;;;;;;;1.27;0.75;;;;;;;14.11;34.60;96140.53;5014601;28;20018;-25
2021/12/07 02:39:56;;;;;;;1.33;0.57;;;;;;;14.17;34.41;96135.25;5014552;28;20022;-25
2021/12/07 02:42:23;;;;;;;1.42;0.50;;;;;;;14.19;34.96;96132.81;5014500;28;20034;-25
2021/12/07 02:44:49;;;;;;;1.75;0.50;;;;;;;14.12;34.59;96133.13;5014599;28;20084;-25
2021/12/07 02:47:15;;;;;;;0.73;0.50;;;;;;;14.03;34.79;96134.66;5014258;28;20026;-25
2021/12/07 02:49:41;;;;;;;1.85;0.50;;;;;;;13.97;34.88;96138.44;5014319;28;20026;-25
2021/12/07 02:52:07;;;;;;;1.15;0.60;;;;;;;14.04;34.96;96127.22;5014411;28;20026;-25
2021/12/07 02:54:34;;;;;;;0.70;0.40;;;;;;;14.03;34.28;96126.47;5014593;28;20420;-25
2021/12/07 02:57:01;;;;;;;1.42;0.52;;;;;;;14.07;34.47;96122.84;5014456;28;20034;-25
2021/12/07 02:59:27;;;;;;;0.70;0.60;;;;;;;14.02;34.00;96122.22;4976572;28;1160212;-25
2021/12/07 03:02:02;;;;;;;1.13;0.60;;;;;;;14.05;34.69;96117.06;5032796;28;20112;-25
2021/12/07 03:04:35;;;;;;;0.65;0.40;;;;;;;14.06;34.12;96113.16;5033970;28;20083;-25
2021/12/07 03:07:20;;;;;;;;;;;;;;;14.05;34.25;96119.81;5035237;28;20017;-25
2021/12/07 03:10:13;;;;;;;0.63;0.40;;;;;;;14.11;34.52;96115.25;5034824;28;19909;-25
2021/12/07 03:26:15;;;;;;;0.70;0.47;;;;;;;14.02;33.96;96113.28;5034912;28;20529;-25
2021/12/07 03:28:44;;;;;;;0.43;0.40;;;;;;;14.08;34.36;96116.19;5034266;28;20041;-25
2021/12/07 03:31:10;;;;;;;0.60;0.40;;;;;;;14.06;34.36;96113.91;5066375;28;20471;-25
2021/12/07 03:33:36;;;;;;;1.40;0.40;;;;;;;14.08;34.02;96127.09;5034115;28;20029;-25
2021/12/07 03:36:05;;;;;;;0.70;0.32;;;;;;;14.07;33.64;96136.47;5034144;28;20040;-25
2021/12/07 03:38:30;;;;;;;1.83;0.32;;;;;;;14.00;33.76;96121.91;5034108;28;20033;-25
2021/12/07 03:40:55;;;;;;;0.80;0.40;;;;;;;13.95;34.24;96128.00;5034083;28;20094;-25
2021/12/07 03:43:21;;;;;;;1.00;0.40;;;;;;;14.02;34.30;96135.84;5034211;28;20437;-25
2021/12/07 03:45:47;;;;;;;0.98;0.57;;;;;;;13.96;33.86;96136.94;5034046;28;20538;-25
2021/12/07 03:48:14;;;;;;;1.38;0.50;;;;;;;14.05;33.93;96139.66;5033922;28;20475;-25
2021/12/07 03:50:40;;;;;;;0.60;0.40;;;;;;;13.94;34.08;96140.13;5033956;28;20387;-25
2021/12/07 03:53:06;;;;;;;1.27;0.60;;;;;;;14.00;34.13;96132.81;5033895;28;20028;-25
2021/12/07 03:55:32;;;;;;;0.82;0.47;;;;;;;13.98;33.50;96143.44;5033900;28;20025;-25
2021/12/07 03:57:58;;;;;;;0.70;0.40;;;;;;;14.06;33.40;96149.34;5033507;28;20049;-25
2021/12/07 04:00:27;;;;;;;0.63;0.40;;;;;;;14.02;34.14;96141.31;5033892;28;20112;-25
2021/12/07 04:02:53;;;;;;;1.63;0.40;;;;;;;13.99;33.89;96146.91;5033753;28;20056;-25
2021/12/07 04:05:22;;;;;;;0.80;0.40;;;;;;;13.99;34.00;96157.81;5033662;28;20483;-25
2021/12/07 04:07:49;;;;;;;0.70;0.40;;;;;;;14.03;33.87;96150.25;5033806;28;20102;-25
2021/12/07 04:10:18;;;;;;;0.73;0.50;;;;;;;13.97;33.86;96150.09;5033843;28;20518;-25
2021/12/07 04:12:44;;;;;;;0.70;0.45;;;;;;;13.93;33.74;96149.50;5033495;28;20022;-25
2021/12/07 04:15:12;;;;;;;1.13;0.50;;;;;;;13.89;34.50;96154.34;5033503;28;20376;-25
2021/12/07 04:17:38;;;;;;;1.15;0.55;;;;;;;13.88;33.58;96161.00;5033406;28;20475;-25
2021/12/07 04:20:05;;;;;;;0.47;0.35;;;;;;;13.94;33.99;96167.38;5033431;28;20072;-25
2021/12/07 04:22:31;;;;;;;0.68;0.50;;;;;;;13.89;33.85;96165.25;5033475;28;20036;-25
2021/12/07 04:24:57;;;;;;;0.50;0.40;;;;;;;13.95;33.78;96170.88;5033330;28;20112;-25
2021/12/07 04:27:22;;;;;;;0.68;0.40;;;;;;;14.03;33.57;96182.97;5033184;28;20026;-25
2021/12/07 04:29:48;;;;;;;0.45;0.30;;;;;;;13.92;34.18;96185.41;5033395;28;20025;-25
2021/12/07 04:32:13;;;;;;;1.33;0.52;;;;;;;13.92;33.86;96186.16;5033273;28;20395;-25
2021/12/07 04:34:39;;;;;;;1.08;0.45;;;;;;;13.96;33.83;96178.59;5033477;28;20033;-25
2021/12/07 04:37:04;;;;;;;0.52;0.40;;;;;;;13.97;33.58;96187.53;5033292;28;20056;-25
2021/12/07 04:39:30;;;;;;;1.48;0.30;;;;;;;13.92;33.30;96191.59;5033549;28;20383;-25
2021/12/07 04:41:55;;;;;;;1.75;0.50;;;;;;;13.91;33.99;96192.06;5033243;28;20034;-25
2021/12/07 04:44:22;;;;;;;0.65;0.50;;;;;;;13.94;33.38;96189.19;5032009;28;20017;-25
2021/12/07 05:00:25;;;;;;;0.60;0.40;;;;;;;13.91;33.48;96190.09;5011224;28;20052;-25
2021/12/07 05:02:56;;;;;;;0.80;0.43;;;;;;;13.91;33.85;96194.78;5011534;28;20038;-25
2021/12/07 05:05:26;;;;;;;1.05;0.40;;;;;;;13.88;33.75;96201.91;5011327;28;20041;-25
2021/12/07 05:07:54;;;;;;;0.55;0.40;;;;;;;13.94;33.96;96200.09;5011162;28;20045;-25
2021/12/07 05:10:30;;;;;;;0.70;0.40;;;;;;;13.88;33.88;96212.78;5011138;28;20029;-25
2021/12/07 05:15:56;;;;;;;1.10;0.60;;;;;;;13.93;33.62;96236.75;5011257;28;20069;-25
2021/12/07 05:39:40;;;;;;;0.70;0.40;;;;;;;13.89;33.56;96249.75;5017333;28;20056;-25
2021/12/07 05:42:05;;;;;;;1.23;0.47;;;;;;;13.89;33.86;96251.72;5013399;28;20021;-25
2021/12/07 05:44:31;;;;;;;1.98;1.20;;;;;;;13.86;33.39;96260.78;5014412;28;20025;-25
2021/12/07 05:46:56;;;;;;;1.13;0.68;;;;;;;13.93;33.56;96265.97;5013215;28;20026;-25
2021/12/07 05:49:22;;;;;;;1.42;0.70;;;;;;;13.98;33.33;96260.66;5014552;28;20080;-25
2021/12/07 05:51:47;;;;;;;2.28;0.73;;;;;;;13.84;33.76;96261.28;5028724;28;20029;-25
2021/12/07 05:54:13;;;;;;;0.80;0.70;;;;;;;13.95;33.64;96261.59;5034197;28;20029;-25
2021/12/07 05:56:39;;;;;;;0.73;0.60;;;;;;;13.87;32.77;96262.31;5032009;28;20065;-25
2021/12/07 05:59:04;;;;;;;1.30;0.80;;;;;;;13.86;33.44;96264.28;5034124;28;20045;-24
2021/12/07 06:01:30;;;;;;;0.85;0.50;;;;;;;13.86;33.53;96253.38;5034192;28;20087;-25
2021/12/07 06:03:56;;;;;;;0.75;0.63;;;;;;;13.93;33.58;96257.78;5034080;28;20028;-25
2021/12/07 06:06:21;;;;;;;1.67;0.75;;;;;;;13.84;33.39;96255.81;5034139;28;20029;-25
2021/12/07 06:08:47;;;;;;;1.70;0.80;;;;;;;13.89;32.84;96257.94;5033845;28;20043;-25
2021/12/07 06:11:12;;;;;;;2.17;0.80;;;;;;;13.91;33.70;96255.50;5033885;28;20028;-25
2021/12/07 06:13:38;;;;;;;0.88;0.70;;;;;;;13.89;33.48;96257.16;5033895;28;20032;-25
2021/12/07 06:16:07;;;;;;;1.45;0.90;;;;;;;13.85;32.81;96251.84;5033770;28;20030;-25
2021/12/07 06:18:33;;;;;;;1.42;0.90;;;;;;;13.88;32.97;96255.66;5033597;28;20028;-25
2021/12/07 06:20:59;;;;;;;2.85;0.80;;;;;;;13.92;33.45;96250.81;5033515;28;20479;-25
2021/12/07 06:23:25;;;;;;;1.88;0.90;;;;;;;13.89;33.63;96249.75;5033768;28;20144;-25
2021/12/07 06:25:51;;;;;;;1.90;0.60;;;;;;;13.79;33.15;96242.00;5033623;28;20503;-25
2021/12/07 06:28:17;;;;;;;1.00;0.75;;;;;;;13.85;33.38;96243.69;5019423;28;20037;-25
2021/12/07 06:30:45;;;;;;;1.25;0.70;;;;;;;13.91;33.47;96233.72;5013868;28;20037;-25
2021/12/07 06:33:12;;;;;;;0.93;0.60;;;;;;;13.82;33.08;96230.97;5013373;28;20037;-25
2021/12/07 06:35:38;;;;;;;1.15;0.80;;;;;;;13.89;32.93;96235.38;5013637;28;20080;-25
2021/12/07 06:38:03;;;;;;;1.60;0.80;;;;;;;13.88;32.93;96239.28;5013503;28;20030;-25
2021/12/07 06:40:29;;;;;;;2.33;0.73;;;;;;;13.86;33.12;96231.56;5013534;28;20029;-25
2021/12/07 06:42:59;;;;;;;2.53;0.57;;;;;;;13.79;33.17;96220.97;5013534;28;20061;-25
2021/12/07 06:45:26;;;;;;;2.17;0.52;;;;;;;13.86;32.59;96220.66;5013217;28;20037;-25
2021/12/07 06:47:51;;;;;;;1.00;0.50;;;;;;;13.85;33.42;96219.16;5013373;28;20034;-25
2021/12/07 06:50:16;;;;;;;1.25;0.80;;;;;;;13.85;33.12;96221.13;5012990;28;20079;-25
2021/12/07 06:52:42;;;;;;;0.90;0.60;;;;;;;13.87;33.15;96233.09;5012872;28;20468;-25
2021/12/07 06:55:08;;;;;;;0.90;0.65;;;;;;;13.89;33.18;96225.22;5013404;28;20030;-25
2021/12/07 06:57:33;;;;;;;1.55;0.65;;;;;;;13.88;33.32;96229.16;5010805;28;20026;-25
2021/12/07 06:59:59;;;;;;;2.35;0.75;;;;;;;13.91;32.56;96228.25;5013196;28;20543;-25
2021/12/07 07:02:24;;;;;;;2.33;1.10;;;;;;;13.86;32.52;96237.03;5013043;28;20121;-25
2021/12/07 07:04:50;;;;;;;1.45;0.70;;;;;;;13.85;32.81;96234.75;5013028;28;20092;-25
2021/12/07 07:07:18;;;;;;;2.13;0.98;;;;;;;13.88;33.06;96245.50;5013026;28;20021;-25
2021/12/07 07:09:43;;;;;;;1.42;0.85;;;;;;;13.92;32.46;96240.69;5012765;28;20741;-25
2021/12/07 07:12:09;;;;;;;2.38;1.00;;;;;;;13.93;32.36;96247.66;5020831;28;20033;-25
2021/12/07 07:14:34;;;;;;;1.40;0.90;;;;;;;13.92;32.55;96240.69;5034503;28;20025;-25
2021/12/07 07:16:59;;;;;;;2.72;0.80;;;;;;;12.82;31.68;96244.19;5034151;28;20021;-26
2021/12/07 07:19:25;;;;;;;4.28;1.38;;;;;;;12.68;30.80;96244.72;5033141;28;20033;-25
2021/12/07 07:21:51;;;;;;;5.55;2.97;;;;;;;13.13;30.14;96239.50;5034466;28;20021;-25
2021/12/07 07:24:16;;;;;;;5.15;2.28;;;;;;;13.41;30.39;96239.63;5034538;28;20442;-25
2021/12/07 07:26:42;;;;;;;4.95;1.88;;;;;;;13.59;30.59;96245.16;5034333;28;20434;-25
2021/12/07 07:29:07;;;;;;;4.25;1.83;;;;;;;13.68;30.91;96239.72;5034470;28;20029;-25
2021/12/07 07:31:36;;;;;;;2.90;1.90;;;;;;;13.73;31.27;96243.81;5033034;28;20026;-25
2021/12/07 07:34:02;;;;;;;4.72;1.52;;;;;;;13.77;31.28;96245.19;5034330;28;20118;-25
2021/12/07 07:36:28;;;;;;;5.07;1.73;;;;;;;13.77;31.31;96250.63;5034072;28;20416;-25
2021/12/07 07:38:53;;;;;;;3.83;1.83;;;;;;;13.72;31.57;96243.06;5034189;28;20033;-25
2021/12/07 07:41:19;;;;;;;2.25;1.40;;;;;;;13.85;31.44;96245.66;5033998;28;20017;-25
2021/12/07 07:43:44;;;;;;;2.50;1.80;;;;;;;13.81;31.56;96254.00;5034158;28;20028;-25
2021/12/07 07:46:09;;;;;;;2.70;1.40;;;;;;;13.86;31.44;96255.34;5033995;28;20032;-25
2021/12/07 07:48:35;;;;;;;2.13;1.30;;;;;;;13.89;31.32;96257.16;5033905;28;20053;-25
2021/12/07 07:51:01;;;;;;;2.30;1.20;;;;;;;13.90;31.51;96269.59;5032552;28;20025;-25
2021/12/07 07:53:27;;;;;;;3.72;1.10;;;;;;;13.91;31.87;96266.41;5034140;28;20034;-25
2021/12/07 07:55:52;;;;;;;2.63;1.20;;;;;;;13.79;32.35;96259.13;5033793;28;20048;-25
2021/12/07 07:58:18;;;;;;;1.42;1.08;;;;;;;13.86;31.72;96261.56;5033934;28;20411;-25
2021/12/07 08:00:44;;;;;;;2.20;1.38;;;;;;;13.89;32.15;96263.38;5033767;28;20036;-25
2021/12/07 08:03:10;;;;;;;1.73;1.02;;;;;;;13.82;32.16;96271.88;5033305;28;20044;-25
2021/12/07 08:05:36;;;;;;;3.45;1.90;;;;;;;13.76;31.79;96268.19;5033805;28;20025;-25
2021/12/07 08:08:01;;;;;;;3.13;1.60;;;;;;;13.84;31.97;96271.41;5033710;28;20040;-25
2021/12/07 08:10:31;;;;;;;4.47;1.80;;;;;;;13.85;32.04;96276.38;5033674;28;20025;-25
2021/12/07 08:12:59;;;;;;;4.50;1.70;;;;;;;13.88;32.02;96259.13;5033704;28;20391;-25
2021/12/07 08:15:26;;;;;;;8.68;2.53;;;;;;;13.85;32.07;96267.44;5032606;28;20080;-25
2021/12/07 08:17:52;;;;;;;19.20;2.83;;;;;;;13.89;31.87;96260.66;5033608;28;20028;-25
2021/12/07 08:20:17;;;;;;;16.55;2.78;;;;;;;13.85;32.31;96251.09;5033493;28;20026;-25
2021/12/07 08:22:43;;;;;;;19.58;3.20;;;;;;;13.85;32.34;96248.38;5033435;28;20124;-25
2021/12/07 08:25:08;;;;;;;20.65;3.53;;;;;;;13.88;32.01;96248.22;5033424;28;20056;-25
2021/12/07 08:27:34;;;;;;;18.85;3.20;;;;;;;13.84;32.26;96255.06;5033239;28;20383;-25
2021/12/07 08:29:59;;;;;;;17.08;3.70;;;;;;;13.86;32.49;96261.56;5033293;28;20475;-25
2021/12/07 08:32:25;;;;;;;11.90;2.70;;;;;;;13.86;32.39;96268.97;5029649;28;20041;-24
2021/12/07 08:34:51;;;;;;;10.95;3.17;;;;;;;13.83;32.61;96267.16;5011530;28;20029;-25
2021/12/07 08:37:16;;;;;;;13.63;2.60;;;;;;;13.84;32.69;96266.72;5018882;28;20091;-25
2021/12/07 08:39:42;;;;;;;9.93;1.98;;;;;;;13.95;32.62;96269.00;5031073;28;20040;-25
2021/12/07 08:42:07;;;;;;;10.30;2.78;;;;;;;13.92;32.62;96267.94;5031141;28;20109;-25
2021/12/07 08:44:33;;;;;;;11.65;2.33;;;;;;;13.90;32.36;96270.34;5030745;28;20037;-25
2021/12/07 08:46:59;;;;;;;7.53;2.30;;;;;;;13.81;32.41;96267.63;5030860;28;20061;-25
2021/12/07 08:49:24;;;;;;;8.32;1.70;;;;;;;13.88;32.65;96280.19;5023999;28;20029;-25
2021/12/07 08:51:51;;;;;;;6.80;1.83;;;;;;;13.81;32.33;96283.97;5011177;28;20034;-25
2021/12/07 08:59:38;;;;;;;9.32;2.60;;;;;;;13.93;32.58;96285.81;5010995;28;20083;-24
2021/12/07 08:59:48;;;;;;;7.72;1.60;;;;;;;13.85;32.93;96298.19;5011405;28;20104;-25
2021/12/07 09:02:22;;;;;;;5.65;2.22;;;;;;;13.98;32.19;96293.38;5011522;28;20755;-25
2021/12/07 09:04:50;;;;;;;3.05;1.50;;;;;;;13.86;32.61;96291.53;5042744;28;20541;-25
2021/12/07 09:07:16;;;;;;;6.03;1.70;;;;;;;13.75;32.94;96285.75;5042887;28;20052;-25
2021/12/07 09:09:43;;;;;;;3.90;1.42;;;;;;;13.88;33.01;96283.66;5011287;28;20026;-25
2021/12/07 09:12:11;;;;;;;5.85;1.67;;;;;;;13.70;33.00;96286.38;5011195;28;20076;-24
2021/12/07 09:14:37;;;;;;;6.07;1.42;;;;;;;13.77;33.16;96288.78;5012547;28;20090;-25
2021/12/07 09:17:05;;;;;;;5.65;1.90;;;;;;;13.75;33.67;96290.44;5013576;28;20113;-25
2021/12/07 09:19:32;;;;;;;3.15;1.63;;;;;;;13.83;33.25;96303.38;5014959;28;20033;-24
2021/12/07 09:21:58;;;;;;;3.78;1.63;;;;;;;13.90;33.35;96294.88;5015031;28;20021;-25
2021/12/07 09:24:24;;;;;;;3.55;1.67;;;;;;;13.84;33.57;96288.53;5015317;28;20117;-25
2021/12/07 09:26:53;;;;;;;4.95;1.60;;;;;;;13.86;33.84;96304.41;5029080;28;20448;-25
2021/12/07 09:29:19;;;;;;;2.53;1.58;;;;;;;13.84;33.33;96293.22;5034850;28;20537;-25
2021/12/07 09:31:46;;;;;;;2.70;1.42;;;;;;;13.88;33.85;96291.09;5034225;28;20033;-25
2021/12/07 09:34:12;;;;;;;4.82;1.33;;;;;;;13.87;33.38;96284.88;5034443;28;20069;-25
2021/12/07 09:36:42;;;;;;;4.82;1.88;;;;;;;13.85;33.58;96289.25;5034393;28;20514;-25
2021/12/07 09:39:11;;;;;;;4.63;1.63;;;;;;;13.86;34.02;96286.09;5034506;28;20041;-25
2021/12/07 09:41:37;;;;;;;3.50;1.70;;;;;;;13.72;33.71;96297.59;5034428;28;20029;-25
2021/12/07 09:44:04;;;;;;;3.63;1.20;;;;;;;13.83;33.64;96291.69;5034183;28;20033;-25
2021/12/07 09:46:30;;;;;;;2.60;1.50;;;;;;;13.84;33.85;96290.50;5034110;28;20076;-25
2021/12/07 09:48:56;;;;;;;3.47;1.27;;;;;;;13.85;33.65;96286.53;5033983;28;20071;-25
2021/12/07 09:51:24;;;;;;;2.65;1.35;;;;;;;13.81;33.40;96297.59;5034051;28;20032;-25
2021/12/07 09:53:52;;;;;;;2.00;1.13;;;;;;;13.86;33.58;96297.00;5034229;28;20487;-25
2021/12/07 09:56:18;;;;;;;2.67;1.45;;;;;;;13.94;33.56;96300.97;5033925;28;20462;-25
2021/12/07 09:58:45;;;;;;;2.58;1.40;;;;;;;13.91;33.33;96295.66;5034455;28;20510;-25
2021/12/07 10:01:11;;;;;;;1.80;1.15;;;;;;;13.92;33.48;96300.66;5036262;28;20156;-25
2021/12/07 10:03:38;;;;;;;2.85;1.50;;;;;;;13.95;33.53;96297.03;5035931;28;20052;-25
2021/12/07 10:06:04;;;;;;;2.58;1.50;;;;;;;13.95;33.26;96290.81;5036029;28;20476;-25
2021/12/07 10:08:30;;;;;;;4.03;1.40;;;;;;;13.99;33.47;96294.91;5035758;28;20025;-25
2021/12/07 10:10:59;;;;;;;3.17;1.42;;;;;;;13.89;33.24;96293.38;5035870;28;20062;-25
2021/12/07 10:13:27;;;;;;;2.25;1.30;;;;;;;13.89;33.19;96284.44;5035755;28;20029;-25
2021/12/07 10:15:54;;;;;;;1.77;1.00;;;;;;;13.81;33.59;96278.53;5035734;28;20057;-25
2021/12/07 10:18:26;;;;;;;4.18;1.92;;;;;;;13.80;33.48;96281.69;5035582;28;20045;-25
2021/12/07 10:20:55;;;;;;;1.50;1.00;;;;;;;13.87;33.33;96275.94;5035819;28;20060;-25
2021/12/07 10:23:20;;;;;;;1.75;0.95;;;;;;;13.87;33.41;96265.78;5035595;28;20021;-25
2021/12/07 10:25:57;;;;;;;1.80;0.93;;;;;;;13.89;33.55;96270.81;5035759;28;20028;-25
2021/12/07 10:28:49;;;;;;;2.75;1.10;;;;;;;13.94;33.21;96270.97;5035650;28;20026;-25
2021/12/07 10:31:27;;;;;;;2.92;1.10;;;;;;;13.94;33.42;96273.69;5035664;28;20025;-25
2021/12/07 10:33:58;;;;;;;1.75;0.95;;;;;;;13.96;33.42;96275.97;5035660;28;20049;-25
2021/12/07 10:36:26;;;;;;;2.03;1.35;;;;;;;13.82;33.40;96274.59;5035461;28;20379;-25
2021/12/07 10:39:00;;;;;;;1.33;0.95;;;;;;;13.81;33.53;96273.06;5035815;28;20025;-25
2021/12/07 10:41:26;;;;;;;1.90;0.95;;;;;;;13.82;33.32;96269.13;5035210;28;20025;-25
2021/12/07 10:43:54;;;;;;;2.33;1.00;;;;;;;13.45;33.57;96265.53;5035352;28;20027;-25
2021/12/07 10:46:37;;;;;;;2.17;1.00;;;;;;;13.86;33.60;96269.72;5035112;28;20029;-25
2021/12/07 10:49:23;;;;;;;;;;;;;;;13.90;33.36;96281.25;5035841;28;20411;-25
2021/12/07 10:52:09;;;;;;;1.75;1.08;;;;;;;13.92;33.44;96283.53;5035101;28;19919;-25
2021/12/07 10:54:44;;;;;;;2.05;0.90;;;;;;;14.01;33.65;96283.53;5035179;28;20029;-25
2021/12/07 10:57:36;;;;;;;1.38;0.80;;;;;;;14.03;33.43;96284.63;5035091;28;20030;-25
2021/12/07 11:00:11;;;;;;;3.38;0.80;;;;;;;13.93;33.54;96293.22;5029651;28;20072;-25
2021/12/07 11:02:39;;;;;;;2.42;1.00;;;;;;;13.91;33.64;96285.50;5034896;28;20021;-25
2021/12/07 11:05:16;;;;;;;1.63;1.13;;;;;;;13.74;33.57;96278.78;5034626;28;20025;-25
2021/12/07 11:07:41;;;;;;;2.55;0.93;;;;;;;13.80;33.84;96282.44;5034932;28;20017;-25
2021/12/07 11:10:18;;;;;;;2.08;1.10;;;;;;;13.86;33.76;96285.31;5035083;28;20051;-25
2021/12/07 11:15:27;;;;;;;2.30;1.08;;;;;;;13.92;34.03;96299.91;5034574;28;20432;-25
2021/12/07 11:17:58;;;;;;;1.75;1.02;;;;;;;14.02;33.87;96294.00;5034527;28;20026;-25
2021/12/07 11:20:25;;;;;;;1.73;1.00;;;;;;;14.05;33.84;96291.59;5034742;28;20022;-25
2021/12/07 11:22:57;;;;;;;4.53;1.20;;;;;;;13.84;34.14;96302.16;5034365;28;20073;-25
2021/12/07 11:25:52;;;;;;;1.83;1.00;;;;;;;14.02;34.38;96304.91;5034372;28;20049;-25
2021/12/07 11:31:26;;;;;;;1.92;1.25;;;;;;;13.99;34.24;96300.34;5034247;28;20320;-25
2021/12/07 11:33:54;;;;;;;1.83;1.20;;;;;;;14.02;34.36;96302.19;5034577;28;20049;-25
2021/12/07 11:36:25;;;;;;;4.35;1.60;;;;;;;14.10;34.20;96299.16;5034047;28;20558;-25
2021/12/07 11:38:52;;;;;;;2.42;1.23;;;;;;;14.07;34.35;96311.75;5033799;28;20067;-25
2021/12/07 11:41:33;;;;;;;2.72;1.50;;;;;;;13.99;34.41;96308.53;5034270;28;20033;-25
2021/12/07 11:44:01;;;;;;;2.33;1.42;;;;;;;14.08;34.38;96294.19;5034394;28;20100;-25
2021/12/07 11:46:29;;;;;;;2.58;1.58;;;;;;;14.11;34.51;96293.25;5033990;28;20080;-25
2021/12/07 11:49:17;;;;;;;2.63;1.50;;;;;;;14.10;34.01;96299.16;5034036;28;20029;-25
2021/12/07 11:51:45;;;;;;;2.88;1.70;;;;;;;14.06;34.39;96293.09;5033794;28;20026;-25
2021/12/07 11:54:11;;;;;;;3.65;1.70;;;;;;;13.92;34.38;96283.53;5033858;28;20040;-25
2021/12/07 11:56:38;;;;;;;3.92;1.80;;;;;;;14.09;34.32;96281.31;5033734;28;20061;-25
2021/12/07 11:59:05;;;;;;;3.03;1.75;;;;;;;14.09;34.55;96286.75;5016598;28;20049;-25
2021/12/07 12:01:31;;;;;;;3.53;2.55;;;;;;;13.88;34.51;96299.28;5014373;28;20030;-25
2021/12/07 12:03:56;;;;;;;3.60;2.10;;;;;;;14.07;34.81;96289.19;5014110;28;20110;-25
2021/12/07 12:06:22;;;;;;;3.92;2.25;;;;;;;14.03;34.60;96292.78;5013986;28;20036;-25
2021/12/07 12:08:50;;;;;;;2.90;1.95;;;;;;;14.02;34.69;96288.56;5013981;28;20030;-25
2021/12/07 12:11:39;;;;;;;4.32;2.33;;;;;;;14.03;35.03;96281.88;5014102;28;20025;-25
2021/12/07 12:14:43;;;;;;;4.47;1.90;;;;;;;14.01;34.41;96275.38;5013935;28;20026;-25
2021/12/07 12:17:30;;;;;;;2.35;1.67;;;;;;;14.07;35.01;96289.19;5013603;28;20046;-25
2021/12/07 12:19:56;;;;;;;3.92;2.25;;;;;;;14.11;35.10;96273.41;5013842;28;20083;-25
2021/12/07 12:22:36;;;;;;;2.85;1.75;;;;;;;14.13;34.52;96271.75;5013723;28;20026;-25
2021/12/07 12:25:07;;;;;;;3.47;1.90;;;;;;;14.13;34.88;96279.16;5013763;28;20028;-25
2021/12/07 12:27:34;;;;;;;4.10;2.55;;;;;;;14.11;34.58;96278.84;5013733;28;20029;-25
2021/12/07 12:30:22;;;;;;;3.95;2.38;;;;;;;14.03;35.05;96276.44;5013535;28;20038;-25
2021/12/07 12:32:54;;;;;;;3.95;2.22;;;;;;;13.99;34.51;96255.97;5013745;28;20036;-25
2021/12/07 12:35:53;;;;;;;3.60;2.33;;;;;;;14.02;35.01;96252.34;5013676;28;20061;-25
2021/12/07 12:38:22;;;;;;;3.17;1.90;;;;;;;13.90;34.69;96261.41;5013240;28;20045;-25
2021/12/07 12:40:59;;;;;;;2.70;1.83;;;;;;;13.74;35.24;96251.53;5013784;28;20025;-25
2021/12/07 12:43:50;;;;;;;2.72;1.77;;;;;;;13.78;35.39;96257.59;5013622;28;20076;-25
2021/12/07 12:46:23;;;;;;;3.92;2.03;;;;;;;13.88;35.14;96272.78;5013532;28;20026;-25
2021/12/07 12:48:52;;;;;;;3.10;1.90;;;;;;;13.78;35.12;96281.38;5015226;28;20026;-25
2021/12/07 12:51:19;;;;;;;3.03;1.90;;;;;;;13.51;35.63;96269.19;5017689;28;20037;-25
2021/12/07 12:53:47;;;;;;;1.83;1.50;;;;;;;13.36;35.58;96289.25;5017867;28;20487;-25
2021/12/07 12:56:16;;;;;;;3.08;1.42;;;;;;;13.44;35.57;96274.91;5017358;28;20491;-25
2021/12/07 12:58:50;;;;;;;3.05;1.50;;;;;;;13.49;35.47;96268.13;5017429;28;20050;-25
2021/12/07 13:01:25;;;;;;;2.08;1.40;;;;;;;13.52;35.72;96267.97;5017548;28;20022;-25
2021/12/07 13:03:55;;;;;;;4.30;1.50;;;;;;;13.58;35.52;96265.44;5017482;28;20052;-25
2021/12/07 13:06:42;;;;;;;2.88;1.60;;;;;;;13.62;35.57;96276.94;5017565;28;20029;-25
2021/12/07 13:09:10;;;;;;;2.17;0.98;;;;;;;12.78;35.55;96287.84;5017448;28;20026;-25
2021/12/07 13:11:44;;;;;;;8.45;1.23;;;;;;;12.83;36.93;96295.47;5017217;28;20029;-25
2021/12/07 13:14:27;;;;;;;2.63;1.20;;;;;;;12.90;36.83;96297.91;5017300;28;20026;-25
2021/12/07 13:16:52;;;;;;;1.73;1.02;;;;;;;13.18;36.15;96303.56;5017269;28;20049;-25
2021/12/07 13:19:19;;;;;;;2.88;1.02;;;;;;;12.95;37.09;96296.59;5017211;28;20129;-25
2021/12/07 13:21:46;;;;;;;3.60;1.30;;;;;;;13.32;36.07;96302.25;5017291;28;20034;-25
2021/12/07 13:24:20;;;;;;;3.00;0.95;;;;;;;13.49;35.99;96300.81;5017143;28;20034;-25